Athboy, South Dakota
Current Conditions -  °F | °C
As of 5:53 AM on Wednesday 22 Oct 2014 (Local Time) from KHEI Reporting Station
Clear Clear  
Wind Chill: 50°   Ceiling: Unl
Heat Index: 50°   Visibility: 10mi
Dew Point: 44°   Wind: 20mph
Humidity: 80%   Direction: 280°W
Pressure: 29.87"   Gusts: NA
Location:  45.2919°N, 102.298°W
Report Text: KHEI 221153Z AUTO 28017KT 10SM CLR 10/07 A2987 RMK AO2 SLP109 T01000067 10172 20094 51028
Loading
Personal Weather Stations






























Interactive Weather Map
Tropical Storm Tracking
New forecast layout! Learn more

10-Day Weather Forecast

Advertisements
Track Severe Weather on mobile